createdAt,value
2023-09-12T00:00:14.259Z,20.83
2023-09-12T00:03:23.215Z,20.78
2023-09-12T00:06:27.229Z,20.77
2023-09-12T00:09:31.428Z,20.73
2023-09-12T00:12:35.395Z,20.71
2023-09-12T00:15:40.097Z,20.69
2023-09-12T00:18:44.625Z,20.65
2023-09-12T00:21:48.566Z,20.61
2023-09-12T00:24:52.638Z,20.59
2023-09-12T00:27:56.678Z,20.59
2023-09-12T00:31:00.581Z,20.55
2023-09-12T00:34:04.436Z,20.52
2023-09-12T00:37:08.278Z,20.50
2023-09-12T00:40:12.237Z,20.47
2023-09-12T00:43:17.575Z,20.49
2023-09-12T00:46:24.035Z,20.44
2023-09-12T00:49:29.273Z,20.40
2023-09-12T00:52:34.480Z,20.43
2023-09-12T00:55:45.217Z,20.37
2023-09-12T00:58:52.230Z,20.31
2023-09-12T01:01:56.499Z,20.29
2023-09-12T01:05:00.448Z,20.24
2023-09-12T01:08:04.835Z,20.19
2023-09-12T01:11:09.739Z,20.19
2023-09-12T01:14:13.976Z,20.20
2023-09-12T01:17:18.450Z,20.20
2023-09-12T01:20:28.669Z,20.16
2023-09-12T01:24:14.403Z,20.12
2023-09-12T01:27:36.100Z,20.13
2023-09-12T01:30:43.200Z,20.10
2023-09-12T01:33:47.230Z,20.08
2023-09-12T01:36:51.096Z,20.08
2023-09-12T01:39:55.168Z,20.07
2023-09-12T01:43:02.543Z,20.01
2023-09-12T01:46:06.993Z,20.02
2023-09-12T01:49:12.835Z,19.99
2023-09-12T01:52:17.813Z,19.97
2023-09-12T01:55:23.345Z,20.00
2023-09-12T01:58:27.694Z,19.98
2023-09-12T02:01:31.737Z,20.03
2023-09-12T02:04:35.883Z,19.98
2023-09-12T02:07:42.359Z,19.97
2023-09-12T02:10:46.472Z,19.96
2023-09-12T02:13:50.226Z,19.98
2023-09-12T02:16:54.073Z,19.96
2023-09-12T02:19:58.129Z,19.95
2023-09-12T02:23:02.493Z,19.92
2023-09-12T02:26:06.683Z,19.84
2023-09-12T02:29:10.911Z,19.85
2023-09-12T02:32:15.178Z,19.88
2023-09-12T02:35:19.306Z,19.82
2023-09-12T02:38:23.691Z,19.77
2023-09-12T02:41:28.078Z,19.77
2023-09-12T02:44:32.173Z,19.75
2023-09-12T02:47:36.213Z,19.74
2023-09-12T02:50:40.150Z,19.70
2023-09-12T02:53:44.457Z,19.67
2023-09-12T02:56:48.657Z,19.65
2023-09-12T02:59:52.914Z,19.58
2023-09-12T03:02:56.824Z,19.55
2023-09-12T03:06:03.906Z,19.53
2023-09-12T03:09:08.108Z,19.53
2023-09-12T03:12:12.447Z,19.50
2023-09-12T03:15:16.410Z,19.45
2023-09-12T03:18:20.770Z,19.42
2023-09-12T03:21:24.996Z,19.40
2023-09-12T03:24:30.094Z,19.41
2023-09-12T03:27:34.410Z,19.32
2023-09-12T03:30:39.512Z,19.34
2023-09-12T03:33:49.050Z,19.28
2023-09-12T03:36:53.056Z,19.29
2023-09-12T03:39:56.744Z,19.32
2023-09-12T03:43:00.898Z,19.21
2023-09-12T03:46:05.294Z,19.20
2023-09-12T03:49:09.029Z,19.20
2023-09-12T03:52:12.886Z,19.17
2023-09-12T03:55:17.747Z,19.17
2023-09-12T03:58:21.842Z,19.16
2023-09-12T04:01:27.328Z,19.14
2023-09-12T04:04:32.258Z,19.13
2023-09-12T04:07:36.435Z,19.12
2023-09-12T04:10:40.440Z,19.12
2023-09-12T04:13:44.966Z,19.12
2023-09-12T04:16:49.428Z,19.14
2023-09-12T04:19:53.450Z,19.12
2023-09-12T04:22:57.568Z,19.10
2023-09-12T04:26:04.305Z,19.06
2023-09-12T04:29:08.504Z,19.11
2023-09-12T04:32:13.112Z,19.12
2023-09-12T04:35:20.314Z,19.09
2023-09-12T04:38:26.183Z,19.06
2023-09-12T04:41:30.921Z,19.15
2023-09-12T04:44:37.140Z,19.08
2023-09-12T04:47:41.313Z,19.06
2023-09-12T04:50:45.489Z,19.04
2023-09-12T04:53:52.754Z,19.04
2023-09-12T04:56:56.737Z,19.04
2023-09-12T05:00:00.493Z,18.98
2023-09-12T05:03:05.147Z,18.99
2023-09-12T05:06:09.372Z,18.98
2023-09-12T05:09:13.365Z,18.98
2023-09-12T05:12:17.806Z,19.00
2023-09-12T05:15:22.033Z,18.95
2023-09-12T05:18:26.353Z,18.99
2023-09-12T05:21:30.513Z,19.02
2023-09-12T05:24:34.561Z,19.03
2023-09-12T05:27:38.771Z,19.07
2023-09-12T05:30:44.090Z,19.04
2023-09-12T05:33:48.350Z,19.09
2023-09-12T05:36:52.379Z,19.09
2023-09-12T05:39:56.536Z,19.08
2023-09-12T05:43:00.874Z,19.12
2023-09-12T05:46:05.035Z,19.21
2023-09-12T05:49:09.189Z,19.24
2023-09-12T05:52:13.148Z,19.28
2023-09-12T05:55:18.661Z,19.28
2023-09-12T05:58:23.076Z,19.26
2023-09-12T06:01:27.279Z,19.38
2023-09-12T06:04:31.461Z,19.38
2023-09-12T06:07:36.301Z,19.38
2023-09-12T06:10:40.481Z,19.44
2023-09-12T06:13:44.890Z,19.57
2023-09-12T06:16:49.272Z,19.69
2023-09-12T06:19:55.145Z,19.78
2023-09-12T06:23:00.577Z,19.80
2023-09-12T06:26:04.649Z,19.89
2023-09-12T06:29:09.006Z,20.04
2023-09-12T06:32:13.393Z,20.24
2023-09-12T06:35:17.848Z,20.40
2023-09-12T06:38:23.801Z,20.49
2023-09-12T06:41:28.293Z,20.50
2023-09-12T06:44:32.650Z,20.63
2023-09-12T06:47:36.662Z,20.74
2023-09-12T06:50:40.715Z,20.91
2023-09-12T06:53:45.114Z,21.02
2023-09-12T06:56:49.639Z,21.06
2023-09-12T06:59:53.715Z,21.19
2023-09-12T07:02:58.444Z,21.19
2023-09-12T07:06:04.119Z,21.27
2023-09-12T07:09:09.804Z,21.41
2023-09-12T07:12:14.003Z,21.54
2023-09-12T07:15:18.338Z,21.64
2023-09-12T07:18:22.868Z,21.71
2023-09-12T07:21:27.309Z,21.87
2023-09-12T07:24:31.888Z,22.09
2023-09-12T07:27:36.086Z,22.19
2023-09-12T07:30:40.330Z,22.25
2023-09-12T07:33:44.524Z,22.39
2023-09-12T07:36:49.118Z,22.40
2023-09-12T07:39:53.530Z,22.44
2023-09-12T07:42:57.622Z,22.66
2023-09-12T07:46:01.867Z,22.92
2023-09-12T07:49:05.873Z,23.03
2023-09-12T07:52:10.280Z,23.04
2023-09-12T07:55:14.178Z,23.15
2023-09-12T07:58:22.747Z,23.47
2023-09-12T08:01:28.414Z,23.68
2023-09-12T08:04:32.642Z,24.04
2023-09-12T08:07:37.289Z,24.27
2023-09-12T08:10:41.835Z,24.04
2023-09-12T08:13:50.780Z,23.94
2023-09-12T08:16:55.235Z,23.86
2023-09-12T08:19:59.530Z,23.83
2023-09-12T08:23:03.891Z,23.82
2023-09-12T08:26:08.825Z,23.86
2023-09-12T08:29:12.791Z,23.95
2023-09-12T08:32:17.055Z,24.02
2023-09-12T08:35:21.039Z,24.05
2023-09-12T08:38:24.842Z,24.11
2023-09-12T08:41:28.894Z,24.22
2023-09-12T08:44:33.122Z,24.22
2023-09-12T08:47:40.140Z,24.29
2023-09-12T08:50:47.548Z,24.38
2023-09-12T08:53:52.467Z,24.51
2023-09-12T08:56:56.991Z,24.72
2023-09-12T09:00:11.480Z,24.88
2023-09-12T09:03:15.758Z,24.90
2023-09-12T09:06:21.948Z,25.00
2023-09-12T09:09:28.766Z,25.04
2023-09-12T09:12:37.040Z,25.15
2023-09-12T09:15:43.265Z,25.26
2023-09-12T09:18:59.300Z,25.34
2023-09-12T09:22:07.447Z,25.44
2023-09-12T09:25:13.495Z,25.55
2023-09-12T09:28:19.567Z,25.53
2023-09-12T09:31:24.070Z,25.52
2023-09-12T09:34:30.440Z,25.64
2023-09-12T09:37:34.637Z,25.79
2023-09-12T09:40:38.808Z,25.80
2023-09-12T09:43:44.764Z,25.76
2023-09-12T09:46:55.628Z,25.66
2023-09-12T09:50:00.564Z,25.65
2023-09-12T09:53:06.494Z,25.56
2023-09-12T09:56:16.449Z,25.57
2023-09-12T09:59:28.111Z,25.55
2023-09-12T10:02:33.019Z,25.59
2023-09-12T10:05:38.635Z,25.66
2023-09-12T10:08:44.636Z,25.70
2023-09-12T10:11:49.329Z,25.82
2023-09-12T10:14:53.736Z,25.85
2023-09-12T10:18:00.004Z,25.82
2023-09-12T10:21:12.853Z,25.92
2023-09-12T10:24:17.401Z,25.94
2023-09-12T10:27:22.948Z,26.08
2023-09-12T10:30:27.834Z,25.94
2023-09-12T10:33:32.680Z,26.03
2023-09-12T10:36:41.955Z,26.12
2023-09-12T10:39:46.782Z,26.14
2023-09-12T10:42:52.326Z,26.12
2023-09-12T10:45:57.799Z,26.21
2023-09-12T10:49:01.911Z,26.46
2023-09-12T10:52:06.716Z,26.37
2023-09-12T10:55:18.391Z,26.42
2023-09-12T10:58:22.721Z,26.45
2023-09-12T11:01:27.543Z,26.48
2023-09-12T11:04:34.629Z,26.47
2023-09-12T11:07:41.791Z,26.49
2023-09-12T11:10:46.085Z,26.47
2023-09-12T11:14:07.008Z,26.57
2023-09-12T11:17:11.809Z,26.69
2023-09-12T11:20:18.192Z,26.73
2023-09-12T11:23:22.782Z,26.76
2023-09-12T11:26:27.036Z,26.71
2023-09-12T11:29:39.590Z,26.67
2023-09-12T11:32:47.142Z,26.78
2023-09-12T11:35:54.045Z,26.85
2023-09-12T11:39:03.448Z,26.95
2023-09-12T11:42:13.975Z,26.95
2023-09-12T11:45:20.508Z,27.14
2023-09-12T11:48:24.788Z,27.20
2023-09-12T11:51:29.296Z,27.14
2023-09-12T11:54:33.545Z,27.11
2023-09-12T11:57:37.569Z,27.23
2023-09-12T12:00:56.452Z,27.43
2023-09-12T12:04:00.406Z,27.54
2023-09-12T12:07:05.643Z,27.39
2023-09-12T12:10:09.562Z,27.22
2023-09-12T12:13:18.163Z,27.08
2023-09-12T12:16:23.942Z,26.99
2023-09-12T12:19:29.595Z,26.93
2023-09-12T12:22:33.774Z,27.14
2023-09-12T12:25:38.084Z,26.98
2023-09-12T12:28:42.686Z,26.99
2023-09-12T12:31:47.192Z,26.87
2023-09-12T12:35:40.219Z,26.94
2023-09-12T12:38:16.326Z,26.98
2023-09-12T12:41:35.626Z,26.98
2023-09-12T12:44:45.500Z,26.88
2023-09-12T12:47:59.027Z,27.23
2023-09-12T12:51:17.994Z,27.52
2023-09-12T12:54:23.546Z,27.73
2023-09-12T12:57:28.177Z,27.99
2023-09-12T13:00:33.021Z,27.78
2023-09-12T13:03:37.178Z,27.48
2023-09-12T13:06:42.139Z,27.32
2023-09-12T13:09:49.161Z,27.27
2023-09-12T13:12:53.423Z,27.40
2023-09-12T13:15:57.806Z,27.57
2023-09-12T13:19:02.350Z,27.68
2023-09-12T13:22:06.630Z,27.46
2023-09-12T13:25:11.454Z,27.22
2023-09-12T13:28:15.649Z,27.12
2023-09-12T13:31:19.952Z,26.89
2023-09-12T13:34:24.110Z,26.93
2023-09-12T13:37:28.634Z,27.03
2023-09-12T13:40:33.055Z,27.07
2023-09-12T13:43:37.365Z,27.19
2023-09-12T13:46:45.237Z,27.31
2023-09-12T13:49:50.264Z,27.23
2023-09-12T13:52:57.062Z,27.28
2023-09-12T13:56:27.756Z,27.44
2023-09-12T13:59:34.401Z,27.38
2023-09-12T14:02:42.670Z,27.54
2023-09-12T14:05:46.941Z,27.91
2023-09-12T14:08:53.260Z,27.90
2023-09-12T14:11:57.872Z,27.79
2023-09-12T14:15:08.737Z,27.69
2023-09-12T14:18:13.796Z,27.58
2023-09-12T14:21:19.584Z,27.53
2023-09-12T14:24:24.336Z,27.47
2023-09-12T14:27:30.776Z,27.43
2023-09-12T14:30:37.133Z,27.41
2023-09-12T14:33:41.883Z,27.41
2023-09-12T14:36:49.174Z,27.34
2023-09-12T14:39:53.714Z,27.32
2023-09-12T14:42:57.919Z,27.25
2023-09-12T14:46:02.414Z,27.25
2023-09-12T14:49:06.920Z,27.21
2023-09-12T14:52:20.126Z,27.17
2023-09-12T14:55:28.263Z,27.21
2023-09-12T14:58:32.471Z,27.34
2023-09-12T15:01:38.455Z,27.28
2023-09-12T15:04:42.770Z,27.21
2023-09-12T15:07:47.105Z,27.24
2023-09-12T15:10:51.154Z,27.21
2023-09-12T15:13:55.289Z,27.21
2023-09-12T15:17:01.264Z,27.20
2023-09-12T15:20:09.001Z,27.24
2023-09-12T15:23:13.146Z,27.21
2023-09-12T15:26:17.219Z,27.20
2023-09-12T15:29:21.837Z,27.14
2023-09-12T15:32:25.926Z,27.11
2023-09-12T15:35:29.945Z,27.10
2023-09-12T15:38:33.892Z,27.07
2023-09-12T15:41:38.210Z,27.02
2023-09-12T15:44:58.131Z,26.98
2023-09-12T15:48:05.548Z,27.04
2023-09-12T15:51:09.908Z,26.98
2023-09-12T15:54:13.799Z,26.94
2023-09-12T15:57:17.904Z,26.93
2023-09-12T16:00:22.066Z,26.89
2023-09-12T16:03:26.756Z,26.86
2023-09-12T16:06:32.288Z,26.83
2023-09-12T16:09:36.641Z,26.78
2023-09-12T16:12:41.419Z,26.81
2023-09-12T16:15:45.495Z,26.77
2023-09-12T16:18:49.848Z,26.73
2023-09-12T16:21:54.021Z,26.70
2023-09-12T16:24:58.585Z,26.73
2023-09-12T16:28:02.933Z,26.73
2023-09-12T16:31:07.279Z,26.63
2023-09-12T16:34:11.451Z,26.54
2023-09-12T16:37:15.756Z,26.47
2023-09-12T16:40:20.168Z,26.39
2023-09-12T16:43:24.590Z,26.40
2023-09-12T16:46:28.962Z,26.39
2023-09-12T16:49:34.598Z,26.37
2023-09-12T16:52:38.916Z,26.29
2023-09-12T16:55:43.776Z,26.19
2023-09-12T16:58:48.046Z,26.14
2023-09-12T17:01:52.465Z,26.02
2023-09-12T17:04:56.480Z,25.93
2023-09-12T17:08:00.549Z,25.85
2023-09-12T17:11:04.648Z,25.78
2023-09-12T17:14:08.776Z,25.71
2023-09-12T17:17:12.830Z,25.67
2023-09-12T17:20:16.838Z,25.61
2023-09-12T17:23:21.227Z,25.53
2023-09-12T17:26:25.612Z,25.45
2023-09-12T17:29:30.413Z,25.42
2023-09-12T17:32:34.442Z,25.35
2023-09-12T17:35:38.572Z,25.29
2023-09-12T17:38:43.539Z,25.22
2023-09-12T17:41:47.644Z,25.15
2023-09-12T17:44:51.703Z,25.01
2023-09-12T17:47:56.349Z,24.94
2023-09-12T17:51:00.003Z,24.88
2023-09-12T17:54:04.089Z,24.83
2023-09-12T17:57:08.895Z,24.82
2023-09-12T18:00:13.324Z,24.81
2023-09-12T18:03:17.201Z,24.78
2023-09-12T18:06:22.094Z,24.80
2023-09-12T18:09:26.502Z,24.81
2023-09-12T18:12:31.579Z,24.79
2023-09-12T18:15:35.719Z,24.79
2023-09-12T18:18:39.807Z,24.71
2023-09-12T18:21:43.842Z,24.61
2023-09-12T18:24:48.272Z,24.51
2023-09-12T18:27:52.441Z,24.40
2023-09-12T18:30:56.912Z,24.31
2023-09-12T18:34:01.081Z,24.29
2023-09-12T18:37:06.165Z,24.19
2023-09-12T18:40:10.835Z,24.13
2023-09-12T18:43:17.033Z,24.09
2023-09-12T18:46:22.048Z,24.06
2023-09-12T18:49:26.502Z,23.99
2023-09-12T18:52:40.366Z,23.99
2023-09-12T18:55:52.935Z,23.94
2023-09-12T18:58:56.924Z,23.92
2023-09-12T19:02:00.978Z,23.90
2023-09-12T19:05:05.799Z,23.92
2023-09-12T19:08:10.919Z,23.93
2023-09-12T19:11:17.060Z,24.00
2023-09-12T19:14:21.136Z,23.93
2023-09-12T19:17:25.542Z,23.86
2023-09-12T19:20:29.809Z,23.80
2023-09-12T19:23:34.266Z,23.69
2023-09-12T19:26:38.471Z,23.65
2023-09-12T19:29:50.657Z,23.62
2023-09-12T19:32:58.536Z,23.56
2023-09-12T19:36:02.668Z,23.51
2023-09-12T19:39:06.952Z,23.50
2023-09-12T19:42:11.221Z,23.50
2023-09-12T19:45:15.407Z,23.74
2023-09-12T19:48:19.797Z,23.73
2023-09-12T19:51:23.945Z,23.85
2023-09-12T19:54:28.475Z,23.85
2023-09-12T19:57:32.289Z,23.85
2023-09-12T20:00:36.409Z,23.80
2023-09-12T20:03:41.082Z,23.72
2023-09-12T20:06:45.631Z,23.73
2023-09-12T20:09:49.863Z,23.65
2023-09-12T20:12:53.927Z,23.63
2023-09-12T20:15:58.191Z,23.60
2023-09-12T20:19:06.480Z,23.59
2023-09-12T20:22:11.703Z,23.50
2023-09-12T20:25:15.872Z,23.48
2023-09-12T20:28:20.991Z,23.42
2023-09-12T20:31:24.713Z,23.42
2023-09-12T20:34:31.903Z,23.36
2023-09-12T20:37:36.002Z,23.30
2023-09-12T20:40:40.308Z,23.20
2023-09-12T20:43:45.026Z,23.26
2023-09-12T20:46:49.644Z,23.20
2023-09-12T20:49:57.510Z,23.25
2023-09-12T20:53:07.700Z,23.15
2023-09-12T20:56:14.418Z,23.05
2023-09-12T20:59:18.342Z,22.91
2023-09-12T21:02:22.544Z,22.90
2023-09-12T21:05:28.058Z,22.87
2023-09-12T21:08:32.646Z,22.84
2023-09-12T21:11:36.892Z,22.84
2023-09-12T21:14:41.037Z,22.84
2023-09-12T21:17:45.516Z,22.80
2023-09-12T21:20:49.421Z,22.77
2023-09-12T21:23:53.315Z,22.79
2023-09-12T21:26:57.459Z,22.70
2023-09-12T21:30:04.119Z,22.69
2023-09-12T21:33:08.072Z,22.65
2023-09-12T21:36:12.274Z,22.58
2023-09-12T21:39:16.772Z,22.58
2023-09-12T21:42:21.129Z,22.53
2023-09-12T21:45:25.350Z,22.52
2023-09-12T21:48:29.383Z,22.50
2023-09-12T21:51:33.681Z,22.48
2023-09-12T21:54:38.271Z,22.46
2023-09-12T21:57:42.603Z,22.52
2023-09-12T22:00:46.682Z,22.43
2023-09-12T22:03:50.853Z,22.41
2023-09-12T22:06:55.313Z,22.39
2023-09-12T22:10:01.634Z,22.35
2023-09-12T22:13:06.842Z,22.36
2023-09-12T22:16:11.335Z,22.37
2023-09-12T22:19:15.282Z,22.33
2023-09-12T22:22:19.482Z,22.34
2023-09-12T22:25:23.689Z,22.37
2023-09-12T22:28:27.647Z,22.39
2023-09-12T22:31:32.795Z,22.32
2023-09-12T22:34:38.189Z,22.31
2023-09-12T22:37:42.509Z,22.37
2023-09-12T22:40:46.812Z,22.27
2023-09-12T22:43:51.065Z,22.30
2023-09-12T22:46:55.604Z,22.30
2023-09-12T22:50:00.158Z,22.25
2023-09-12T22:53:05.284Z,22.21
2023-09-12T22:56:09.223Z,22.23
2023-09-12T22:59:14.431Z,22.19
2023-09-12T23:02:18.513Z,22.24
2023-09-12T23:05:22.872Z,22.22
2023-09-12T23:08:27.072Z,22.25
2023-09-12T23:11:31.353Z,22.22
2023-09-12T23:14:35.543Z,22.15
2023-09-12T23:17:39.611Z,22.10
2023-09-12T23:20:46.218Z,22.14
2023-09-12T23:23:49.986Z,22.07
2023-09-12T23:26:53.902Z,22.06
2023-09-12T23:29:58.919Z,22.09
2023-09-12T23:33:04.142Z,22.16
2023-09-12T23:36:10.479Z,22.19
2023-09-12T23:39:16.087Z,22.19
2023-09-12T23:42:21.099Z,22.20
2023-09-12T23:45:25.091Z,22.23
2023-09-12T23:48:29.134Z,22.21
2023-09-12T23:51:33.392Z,22.31
2023-09-12T23:54:37.448Z,22.31
2023-09-12T23:57:41.984Z,22.20
